Heron, Montana
Current Conditions -  °F | °C
As of 12:55 AM on Wednesday 22 Oct 2014 (Local Time) from KSZT Reporting Station
Clear Clear  
Wind Chill: 38°   Ceiling: Unl
Heat Index: 41°   Visibility: 10mi
Dew Point: 41°   Wind: 5mph
Humidity: 100%   Direction: 190°S
Pressure: 29.98"   Gusts: NA
Location:  48.06°N, 115.96°W
Report Text: KSZT 220655Z AUTO 19004KT 10SM CLR 05/05 A2998 RMK AO2
Loading
Personal Weather Stations






























Interactive Weather Map
Tropical Storm Tracking
New forecast layout! Learn more

10-Day Weather Forecast

Advertisements
Track Severe Weather on mobile